TFFR/PTP METAR and TAF weather

Enter ICAO airport designator
Station Type Date Time Source
TFFR METAR 2020/04/03 22:30 UTC NOAA

TFFR 032230Z AUTO 12006KT 9999 FEW044 26/21 Q1012 NOSIG


Station Type Date Time Source
TFFR Decoded METAR 2020/04/03 22:30 UTC NOAA

Le Raizet, Guadeloupe, Guadeloupe (TFFR) 16-16N 061-31W 11M
Apr 03, 2020 - 06:30 PM EDT / 2020.04.03 2230 UTC
Wind: from the ESE (120 degrees) at 7 MPH (6 KT):0
Visibility: greater than 7 mile(s):0
Sky conditions: mostly clear
Temperature: 78 F (26 C)
Dew Point: 69 F (21 C)
Relative Humidity: 73%
Pressure (altimeter): 29.88 in. Hg (1012 hPa)
ob: TFFR 032230Z AUTO 12006KT 9999 FEW044 26/21 Q1012 NOSIG
cycle: 22

Station Type Date Time Source
TFFR TAF 2020/04/03 18:55 UTC NOAA

TAF TFFR 031600Z 0318/0418 14010KT 9999 SCT025
BECMG 0400/0403 VRB02KT
BECMG 0412/0414 12010KT

Example: see airport list